Time;durP1;ratioP1;P1;durP2;ratioP2;P2;SDS_P1;SDS_P2;PMS_P1;PMS_P2;Temp;Humidity;BMP_temperature;BMP_pressure;BME280_temperature;BME280_humidity;BME280_pressure;Samples;Min_cycle;Max_cycle;Signal;HPM_P1;HPM_P2
2022/12/21 00:05:04;;;;;;;;;;;;;;;;;;;;;
2022/12/21 00:19:55;;;;;;;93.40;48.10;;;;;;;2.22;66.05;99229.55;220459;1277;635678;-64
2022/12/21 00:25:23;;;;;;;93.80;48.90;;;;;;;2.17;65.96;99237.02;223035;1261;138578;-66
2022/12/21 00:30:26;;;;;;;91.60;49.30;;;;;;;2.14;66.06;99250.73;222834;1276;137903;-67
2022/12/21 00:35:29;;;;;;;91.90;49.00;;;;;;;2.10;65.97;99237.19;222866;1254;138103;-67
2022/12/21 00:49:24;;;;;;;88.90;48.20;;;;;;;2.09;65.92;99235.95;222913;1240;138346;-63
2022/12/21 01:14:27;;;;;;;92.30;46.30;;;;;;;2.06;65.85;99238.69;220251;1273;646575;-66
2022/12/21 01:20:22;;;;;;;92.80;49.90;;;;;;;2.04;65.90;99222.63;223257;1261;137210;-67
2022/12/21 01:37:32;;;;;;;87.90;47.20;;;;;;;1.92;66.14;99204.72;219493;1290;137729;-65
2022/12/21 02:54:01;;;;;;;93.40;50.90;;;;;;;1.75;66.23;99140.41;220873;1271;635623;-65
2022/12/21 03:13:49;;;;;;;93.30;48.50;;;;;;;1.62;66.49;99156.98;218424;1286;137562;-68
2022/12/21 03:51:51;;;;;;;95.40;49.40;;;;;;;1.71;66.87;99160.30;221651;1296;655423;-65
2022/12/21 03:56:56;;;;;;;95.50;48.60;;;;;;;1.78;66.51;99169.39;222801;1264;139892;-66
2022/12/21 04:02:09;;;;;;;92.00;49.50;;;;;;;1.78;66.27;99158.38;222653;1260;139139;-66
2022/12/21 04:07:15;;;;;;;90.50;49.90;;;;;;;1.74;66.09;99152.34;222495;1280;139002;-69
2022/12/21 04:12:37;;;;;;;87.10;47.00;;;;;;;1.67;66.11;99148.31;222742;1260;137869;-70
2022/12/21 04:17:44;;;;;;;86.10;45.40;;;;;;;1.65;66.20;99151.86;222728;1255;139341;-69
2022/12/21 04:28:24;;;;;;;94.80;47.90;;;;;;;1.56;66.38;99155.20;222816;1258;139590;-68
2022/12/21 04:42:05;;;;;;;;;;;;;;;;;;;;;
2022/12/21 04:48:18;;;;;;;87.20;45.30;;;;;;;1.44;66.65;99152.89;220781;1298;138451;-71
2022/12/21 05:04:22;;;;;;;96.80;49.70;;;;;;;1.41;66.93;99170.06;222609;1274;138429;-72
2022/12/21 05:10:15;;;;;;;128.00;70.40;;;;;;;1.39;66.34;99165.59;219515;1273;636995;-73
2022/12/21 05:15:19;;;;;;;84.90;43.90;;;;;;;1.42;66.87;99176.00;222858;1287;139700;-67
2022/12/21 05:20:22;;;;;;;84.90;43.90;;;;;;;1.41;66.51;99173.38;222742;1279;138821;-75
2022/12/21 05:25:26;;;;;;;104.70;57.90;;;;;;;1.39;66.79;99172.23;222718;1261;138756;-71
2022/12/21 05:30:30;;;;;;;87.10;46.90;;;;;;;1.44;66.69;99170.02;222588;1264;139187;-71
2022/12/21 05:35:42;;;;;;;86.20;44.80;;;;;;;1.48;66.27;99164.13;222672;1288;138443;-75
2022/12/21 05:40:47;;;;;;;87.70;44.70;;;;;;;1.48;66.26;99166.61;222750;1264;138753;-76
2022/12/21 05:45:52;;;;;;;81.10;44.30;;;;;;;1.48;66.24;99169.23;222663;1274;138562;-76
2022/12/21 05:50:57;;;;;;;83.40;43.00;;;;;;;1.45;66.45;99176.12;222806;1261;138112;-75
2022/12/21 05:56:01;;;;;;;77.40;43.20;;;;;;;1.40;66.42;99174.47;222611;1261;138260;-74
2022/12/21 06:01:07;;;;;;;76.10;42.30;;;;;;;1.41;66.50;99170.78;222648;1258;138963;-78
2022/12/21 06:06:15;;;;;;;86.40;46.90;;;;;;;1.41;66.60;99168.69;222711;1259;138697;-69
2022/12/21 06:11:22;;;;;;;80.90;43.30;;;;;;;1.53;67.05;99166.13;222626;1261;138711;-70
2022/12/21 06:16:26;;;;;;;85.00;43.60;;;;;;;1.60;66.66;99157.75;222679;1260;138327;-70
2022/12/21 06:21:33;;;;;;;82.90;44.80;;;;;;;1.57;66.54;99158.70;222857;1261;138917;-73
2022/12/21 06:26:38;;;;;;;59.90;30.50;;;;;;;1.61;66.50;99161.23;222794;1287;138754;-69
2022/12/21 06:31:51;;;;;;;82.30;44.40;;;;;;;1.65;66.39;99152.02;222733;1258;137942;-69
2022/12/21 06:36:55;;;;;;;76.60;43.80;;;;;;;1.65;66.37;99160.41;222705;1285;138485;-68
2022/12/21 06:41:58;;;;;;;79.30;43.20;;;;;;;1.63;66.34;99160.98;222648;1261;139369;-67
2022/12/21 06:48:10;;;;;;;;;;;;;;;;;;;;;
2022/12/21 08:34:14;;;;;;;;;;;;;;;;;;;;;
2022/12/21 08:40:01;;;;;;;70.80;39.90;;;;;;;2.77;64.81;99074.42;221926;1267;138143;-71
2022/12/21 08:45:05;;;;;;;152.40;89.00;;;;;;;2.82;65.62;99077.09;222084;1268;138274;-69
2022/12/21 08:50:15;;;;;;;78.30;42.00;;;;;;;2.93;65.18;99074.84;221895;1282;138891;-68
2022/12/21 08:55:18;;;;;;;78.60;40.30;;;;;;;2.97;64.75;99061.93;222150;1267;138025;-68
2022/12/21 09:00:22;;;;;;;69.10;39.90;;;;;;;3.01;64.63;99068.80;222118;1289;139395;-69
2022/12/21 09:05:25;;;;;;;71.60;40.40;;;;;;;3.08;64.64;99068.24;222160;1267;139761;-69
2022/12/21 09:10:36;;;;;;;70.00;40.00;;;;;;;3.18;64.61;99057.58;222116;1290;138653;-68
2022/12/21 09:15:43;;;;;;;74.50;39.80;;;;;;;3.25;64.30;99057.36;222276;1264;138451;-71
2022/12/21 09:32:01;;;;;;;65.20;38.10;;;;;;;3.45;64.14;99044.61;221503;1273;683343;-69
2022/12/21 09:37:06;;;;;;;75.80;39.60;;;;;;;3.62;63.92;99015.63;222668;1275;138264;-70
2022/12/21 09:42:54;;;;;;;66.20;37.40;;;;;;;3.67;63.70;99026.15;222710;1262;138051;-69
2022/12/21 09:48:27;;;;;;;65.00;37.10;;;;;;;3.70;63.69;99040.08;222560;1260;138666;-71
2022/12/21 09:53:58;;;;;;;64.30;36.10;;;;;;;3.82;63.53;99044.77;222664;1264;138321;-70
2022/12/21 09:59:04;;;;;;;60.60;36.20;;;;;;;3.86;63.64;99041.13;222644;1269;138703;-69
2022/12/21 10:04:38;;;;;;;59.70;35.30;;;;;;;3.83;63.34;99040.89;222866;1286;138889;-68
2022/12/21 10:10:27;;;;;;;63.40;35.70;;;;;;;3.87;63.67;99037.91;222841;1258;138673;-70
2022/12/21 10:15:36;;;;;;;65.20;36.80;;;;;;;3.91;63.78;99030.77;222779;1285;138090;-69
2022/12/21 10:20:57;;;;;;;57.20;34.30;;;;;;;3.98;64.16;99019.11;222789;1261;140050;-68
2022/12/21 10:26:05;;;;;;;66.80;36.60;;;;;;;4.06;63.88;99015.14;222686;1255;138231;-70
2022/12/21 10:31:18;;;;;;;67.70;38.00;;;;;;;4.15;63.80;99012.52;222605;1261;138250;-70
2022/12/21 10:36:35;;;;;;;60.40;36.60;;;;;;;4.32;64.87;99011.02;222764;1265;138995;-69
2022/12/21 10:41:47;;;;;;;67.80;38.00;;;;;;;4.81;69.80;99005.63;222756;1261;140380;-70
2022/12/21 10:46:50;;;;;;;68.80;39.80;;;;;;;4.98;64.10;98994.95;222821;1285;139750;-68
2022/12/21 10:51:57;;;;;;;72.90;41.30;;;;;;;4.91;63.11;98989.42;222758;1277;138724;-68
2022/12/21 10:57:56;;;;;;;69.60;40.50;;;;;;;4.90;62.79;98986.81;222722;1287;138794;-68
2022/12/21 11:04:02;;;;;;;74.00;41.40;;;;;;;4.87;62.50;98986.61;223139;1278;139145;-68
2022/12/21 11:09:36;;;;;;;73.50;42.40;;;;;;;4.90;62.48;98984.73;222523;1261;139690;-68
2022/12/21 11:14:41;;;;;;;80.20;44.00;;;;;;;4.87;62.65;98971.66;222761;1261;139283;-67
2022/12/21 11:20:20;;;;;;;74.30;42.90;;;;;;;4.87;62.15;98976.40;222566;1267;138156;-66
2022/12/21 11:25:56;;;;;;;77.60;42.70;;;;;;;4.83;62.39;98971.09;222762;1284;138808;-68
2022/12/21 11:31:05;;;;;;;76.50;42.90;;;;;;;4.79;62.52;98969.02;222737;1260;138227;-68
2022/12/21 11:36:53;;;;;;;77.20;42.40;;;;;;;4.85;62.96;98962.25;222600;1285;138818;-67
2022/12/21 11:42:18;;;;;;;71.90;44.20;;;;;;;4.86;62.50;98952.73;222441;1261;141088;-67
2022/12/21 11:48:06;;;;;;;72.40;41.60;;;;;;;4.81;62.93;98946.23;222456;1261;138550;-68
2022/12/21 12:00:07;;;;;;;73.00;42.10;;;;;;;4.73;63.24;98935.83;222661;1262;124295;-66
2022/12/21 12:06:08;;;;;;;157.70;91.20;;;;;;;4.76;63.62;98939.59;222495;1261;138105;-68
2022/12/21 12:11:58;;;;;;;72.80;42.80;;;;;;;4.84;63.95;98937.17;222481;1280;139287;-68
2022/12/21 12:17:18;;;;;;;71.80;41.60;;;;;;;4.78;63.55;98937.08;222873;1277;138212;-69
2022/12/21 12:23:03;;;;;;;69.60;41.00;;;;;;;4.76;63.32;98941.00;222513;1258;138389;-70
2022/12/21 12:29:11;;;;;;;78.60;41.60;;;;;;;4.69;63.77;98935.82;222690;1265;139098;-68
2022/12/21 12:41:45;;;;;;;;;;;;;;;;;;;;;
2022/12/21 12:47:22;;;;;;;78.30;42.90;;;;;;;4.64;64.34;98933.90;222623;1262;139649;-69
2022/12/21 13:06:30;;;;;;;68.30;39.20;;;;;;;4.65;64.50;98921.73;221135;1261;139490;-69
2022/12/21 13:11:47;;;;;;;64.90;36.70;;;;;;;4.66;64.75;98924.53;222487;1268;138290;-69
2022/12/21 13:19:06;;;;;;;56.50;32.90;;;;;;;4.72;64.81;98935.17;222760;1264;139079;-69
2022/12/21 13:24:42;;;;;;;60.80;34.70;;;;;;;4.83;65.24;98945.27;222334;1264;138603;-67
2022/12/21 13:31:23;;;;;;;61.70;35.20;;;;;;;4.94;64.77;98960.81;222142;1264;141101;-70
2022/12/21 13:44:49;;;;;;;66.70;38.40;;;;;;;5.18;64.24;98954.05;222388;1276;138488;-68
2022/12/21 13:51:31;;;;;;;64.50;35.40;;;;;;;5.17;63.82;98949.68;222607;1265;139053;-68
2022/12/21 13:57:58;;;;;;;64.70;36.60;;;;;;;5.07;64.08;98947.13;222148;1265;140307;-67
2022/12/21 14:10:36;;;;;;;72.60;43.50;;;;;;;4.89;64.74;98936.78;187310;1214;107147;-67
2022/12/21 14:22:04;;;;;;;75.20;44.30;;;;;;;4.74;65.06;98937.35;220304;1289;635587;-68
2022/12/21 14:36:05;;;;;;;76.50;44.00;;;;;;;4.56;65.88;98936.52;221612;1271;138748;-71
2022/12/21 15:04:14;;;;;;;82.30;46.00;;;;;;;4.67;67.05;98953.64;216754;1285;3768601;-67
2022/12/21 15:32:18;;;;;;;76.50;42.20;;;;;;;4.53;67.61;98951.20;219753;1276;645215;-73
2022/12/21 15:38:20;;;;;;;78.70;42.50;;;;;;;4.49;67.75;98946.80;222490;1267;138140;-70
2022/12/21 15:43:41;;;;;;;76.80;42.50;;;;;;;4.48;67.78;98948.58;222271;1283;138219;-73
2022/12/21 15:48:54;;;;;;;70.90;40.30;;;;;;;4.45;68.14;98943.77;222762;1276;138233;-72
2022/12/21 15:54:19;;;;;;;75.40;42.40;;;;;;;4.41;68.32;98944.84;222707;1257;138685;-73
2022/12/21 15:59:33;;;;;;;73.30;40.90;;;;;;;4.41;68.82;98942.17;222604;1280;139227;-72
2022/12/21 16:04:47;;;;;;;76.80;43.80;;;;;;;4.62;69.41;98942.76;222623;1261;139190;-69
2022/12/21 16:10:03;;;;;;;79.30;44.20;;;;;;;4.70;68.49;98932.45;222585;1280;138679;-69
2022/12/21 16:15:23;;;;;;;75.70;42.70;;;;;;;4.66;68.63;98933.85;222695;1277;138623;-70
2022/12/21 16:20:31;;;;;;;76.80;40.10;;;;;;;4.60;68.64;98925.80;222798;1277;138544;-73
2022/12/21 16:25:35;;;;;;;77.50;42.70;;;;;;;4.60;69.09;98921.79;222748;1258;138622;-71
2022/12/21 16:30:48;;;;;;;70.40;40.00;;;;;;;4.54;69.21;98916.90;222708;1259;138050;-71
2022/12/21 16:35:56;;;;;;;;;;;;;;;4.49;69.26;98917.98;222672;1278;139354;-70
2022/12/21 16:41:02;;;;;;;76.50;43.50;;;;;;;4.43;69.40;98915.77;222780;1262;125714;-71
2022/12/21 16:46:07;;;;;;;74.40;44.90;;;;;;;4.38;69.63;98911.23;222624;1260;139670;-75
2022/12/21 16:51:38;;;;;;;75.20;44.00;;;;;;;4.37;69.92;98909.48;222658;1261;138847;-72
2022/12/21 16:56:46;;;;;;;81.70;45.00;;;;;;;4.38;69.88;98902.27;222792;1286;139679;-74
2022/12/21 17:02:07;;;;;;;81.30;47.30;;;;;;;4.47;69.88;98899.96;222682;1274;139793;-72
2022/12/21 17:07:34;;;;;;;85.00;47.00;;;;;;;4.52;69.44;98891.89;222712;1270;138723;-74
2022/12/21 17:13:31;;;;;;;80.70;46.40;;;;;;;4.46;69.67;98893.36;222481;1259;138808;-74
2022/12/21 17:20:37;;;;;;;84.10;46.80;;;;;;;4.46;69.68;98896.52;222908;1260;138214;-70
2022/12/21 17:26:02;;;;;;;;;;;;;;;4.43;69.73;98888.34;222895;1254;138316;-69
2022/12/21 17:37:31;;;;;;;79.70;45.70;;;;;;;4.35;70.00;98880.95;222843;1260;137922;-69
2022/12/21 17:43:29;;;;;;;86.60;47.50;;;;;;;4.43;70.63;98877.83;223013;1261;138501;-68
2022/12/21 17:50:02;;;;;;;84.20;48.40;;;;;;;4.46;69.78;98868.21;222657;1268;138417;-70
2022/12/21 17:55:27;;;;;;;79.30;45.60;;;;;;;4.39;69.73;98860.95;222707;1260;138256;-73
2022/12/21 18:00:44;;;;;;;81.60;47.10;;;;;;;4.36;69.93;98855.45;222473;1261;140175;-70
2022/12/21 18:06:24;;;;;;;88.90;49.40;;;;;;;4.45;69.94;98847.87;222818;1258;139272;-70
2022/12/21 18:11:37;;;;;;;84.70;46.90;;;;;;;4.50;69.67;98849.80;222613;1264;138259;-69
2022/12/21 18:17:35;;;;;;;78.60;47.60;;;;;;;4.50;70.10;98846.98;222339;1264;138501;-70
2022/12/21 18:22:58;;;;;;;80.50;45.40;;;;;;;4.46;69.71;98850.84;221925;1282;138811;-70
2022/12/21 18:28:12;;;;;;;74.30;44.50;;;;;;;4.41;69.89;98847.00;222287;1264;140082;-68
2022/12/21 18:33:19;;;;;;;74.00;44.00;;;;;;;4.37;70.10;98845.04;222540;1290;138980;-68
2022/12/21 18:38:34;;;;;;;74.40;42.60;;;;;;;4.34;70.05;98839.05;221969;1266;138948;-71
2022/12/21 18:50:35;;;;;;;64.60;37.90;;;;;;;4.36;70.05;98839.81;221783;1267;124407;-69
2022/12/21 18:56:29;;;;;;;69.50;40.60;;;;;;;4.27;70.27;98821.20;222631;1260;139057;-69
2022/12/21 19:02:01;;;;;;;80.50;49.00;;;;;;;4.39;71.17;98821.77;222575;1261;139233;-70
2022/12/21 19:07:11;;;;;;;78.10;43.10;;;;;;;4.59;70.79;98816.92;222538;1264;138998;-72
2022/12/21 19:12:41;;;;;;;;;;;;;;;;;;;;;
2022/12/21 19:18:36;;;;;;;75.40;43.00;;;;;;;4.55;70.07;98817.98;222327;1261;139059;-68
2022/12/21 19:24:02;;;;;;;79.00;44.40;;;;;;;4.57;70.15;98813.34;222428;1262;138606;-68
2022/12/21 19:29:49;;;;;;;78.70;44.40;;;;;;;4.52;69.74;98807.19;222893;1260;139582;-68
2022/12/21 19:35:36;;;;;;;77.90;43.70;;;;;;;4.45;70.05;98807.14;222563;1258;138556;-71
2022/12/21 19:40:49;;;;;;;80.70;45.30;;;;;;;4.41;69.96;98806.24;222454;1264;138647;-69
2022/12/21 19:46:23;;;;;;;79.40;46.60;;;;;;;4.34;70.34;98796.70;222508;1277;138830;-71
2022/12/21 19:51:31;;;;;;;80.90;46.80;;;;;;;4.31;70.46;98801.38;222571;1262;139030;-69
2022/12/21 19:56:41;;;;;;;81.00;45.60;;;;;;;4.29;70.50;98808.16;222765;1277;138253;-69
2022/12/21 20:02:43;;;;;;;;;;;;;;;;;;;;;
2022/12/21 20:09:07;;;;;;;83.30;47.60;;;;;;;4.56;71.56;98810.21;222111;1265;139805;-67
2022/12/21 20:15:38;;;;;;;85.80;46.30;;;;;;;4.64;70.09;98806.89;222043;1281;138516;-72
2022/12/21 20:20:54;;;;;;;78.90;45.50;;;;;;;4.54;69.99;98810.09;222672;1268;139027;-68
2022/12/21 20:26:02;;;;;;;76.00;43.90;;;;;;;4.52;70.05;98812.65;222609;1261;138450;-70
2022/12/21 20:31:10;;;;;;;86.60;47.60;;;;;;;4.46;70.20;98809.02;222733;1261;138081;-70
2022/12/21 20:50:15;;;;;;;82.60;44.20;;;;;;;4.30;70.81;98817.23;222242;1287;139151;-70
2022/12/21 21:01:14;;;;;;;87.90;51.10;;;;;;;4.47;72.10;98812.16;222535;1264;139791;-70
2022/12/21 21:06:26;;;;;;;84.50;46.90;;;;;;;4.69;70.98;98812.64;222543;1261;139035;-64
2022/12/21 21:17:25;;;;;;;76.10;41.40;;;;;;;4.68;70.16;98809.54;222480;1264;139226;-65
2022/12/21 21:23:00;;;;;;;80.90;43.30;;;;;;;4.61;70.31;98810.71;222603;1265;138421;-64
2022/12/21 21:28:27;;;;;;;78.70;44.40;;;;;;;4.56;70.41;98807.55;222532;1264;138779;-64
2022/12/21 21:33:40;;;;;;;75.10;43.20;;;;;;;4.52;70.65;98800.88;222511;1260;138812;-65
2022/12/21 21:45:02;;;;;;;81.40;45.70;;;;;;;4.45;70.90;98814.86;222738;1261;138956;-63
2022/12/21 21:50:44;;;;;;;80.70;45.10;;;;;;;4.41;70.67;98810.45;222544;1261;139274;-63
2022/12/21 21:55:51;;;;;;;80.50;44.60;;;;;;;4.43;70.59;98811.98;222543;1268;139405;-64
2022/12/21 22:01:12;;;;;;;;;;;;;;;4.44;70.55;98804.52;222722;1262;139718;-64
2022/12/21 22:06:24;;;;;;;86.20;48.60;;;;;;;4.43;70.72;98802.65;222731;1284;124987;-64
2022/12/21 22:11:29;;;;;;;84.70;47.70;;;;;;;4.43;70.79;98802.48;222664;1261;138411;-65
2022/12/21 22:17:07;;;;;;;84.70;61.40;;;;;;;4.40;70.57;98796.80;222690;1290;138959;-67
2022/12/21 22:42:35;;;;;;;82.10;46.70;;;;;;;4.30;71.11;98796.86;222493;1289;138613;-64
2022/12/21 23:00:27;;;;;;;85.00;57.00;;;;;;;4.39;71.22;98808.42;220916;1296;139217;-64
2022/12/21 23:05:35;;;;;;;86.80;47.40;;;;;;;4.46;71.23;98809.89;221750;1265;139071;-65
2022/12/21 23:10:53;;;;;;;90.90;49.40;;;;;;;4.53;71.21;98805.77;222301;1289;138643;-65
2022/12/21 23:16:40;;;;;;;83.40;46.20;;;;;;;4.54;71.10;98811.70;222734;1262;139176;-65
2022/12/21 23:44:56;;;;;;;77.10;44.80;;;;;;;4.52;71.05;98791.21;222444;1288;139965;-67
